Time,TemperatureF,DewpointF,PressureIn,WindDirection,WindDirectionDegrees,WindSpeedMPH,WindSpeedGustMPH,Humidity,HourlyPrecipIn,Conditions,Clouds,dailyrainin,SolarRadiationWatts/m^2,SoftwareType,DateUTC
2013-12-14 00:00:00,37.0,26.1,-100.00,WSW,256,5.1,7.8,64,0.00,,,-99.99,1.0,HOBO +U30 +Weather +,2013-12-14 07:00:00,
2013-12-14 00:05:00,37.2,26.1,-100.00,WSW,254,6.3,10.7,63,0.00,,,-99.99,1.0,HOBO +U30 +Weather +,2013-12-14 07:05:00,
2013-12-14 00:10:00,37.3,25.9,-100.00,WSW,257,5.1,8.5,63,0.00,,,-99.99,1.0,HOBO +U30 +Weather +,2013-12-14 07:10:00,
2013-12-14 00:15:00,37.1,25.9,-100.00,SW,226,4.0,7.8,63,0.00,,,-99.99,1.0,HOBO +U30 +Weather +,2013-12-14 07:15:00,
2013-12-14 00:20:00,36.1,25.6,-100.00,SSW,202,2.9,8.5,65,0.00,,,-99.99,1.0,HOBO +U30 +Weather +,2013-12-14 07:20:00,
2013-12-14 00:25:00,34.9,25.3,-100.00,SSE,163,3.4,5.6,67,0.00,,,-99.99,1.0,HOBO +U30 +Weather +,2013-12-14 07:25:00,
2013-12-14 00:30:00,34.8,25.6,-100.00,SSE,167,5.6,8.9,68,0.00,,,-99.99,1.0,HOBO +U30 +Weather +,2013-12-14 07:30:00,
2013-12-14 00:35:00,34.7,25.4,-100.00,South,177,6.7,8.9,68,0.00,,,-99.99,1.0,HOBO +U30 +Weather +,2013-12-14 07:35:00,
2013-12-14 00:40:00,34.9,25.5,-100.00,South,180,7.4,9.6,68,0.00,,,-99.99,1.0,HOBO +U30 +Weather +,2013-12-14 07:40:00,
2013-12-14 00:45:00,35.0,25.3,-100.00,South,181,5.6,7.4,67,0.00,,,-99.99,1.0,HOBO +U30 +Weather +,2013-12-14 07:45:00,
2013-12-14 00:55:00,35.0,25.3,-100.00,SW,234,4.0,6.7,67,0.00,,,-99.99,1.0,HOBO +U30 +Weather +,2013-12-14 07:55:00,
2013-12-14 00:56:00,34.8,25.4,-100.00,SSW,202,4.0,6.3,68,0.00,,,-99.99,1.0,HOBO +U30 +Weather +,2013-12-14 07:56:00,
2013-12-14 01:00:00,34.2,25.2,-100.00,West,271,3.4,5.6,69,0.00,,,-99.99,1.0,HOBO +U30 +Weather +,2013-12-14 08:00:00,
2013-12-14 01:05:00,33.8,25.3,-100.00,West,277,2.2,5.6,70,0.00,,,-99.99,1.0,HOBO +U30 +Weather +,2013-12-14 08:05:00,
2013-12-14 01:10:00,33.9,25.2,-100.00,West,267,2.2,5.1,70,0.00,,,-99.99,1.0,HOBO +U30 +Weather +,2013-12-14 08:10:00,
2013-12-14 01:15:00,34.0,25.2,-100.00,WSW,250,4.0,5.6,69,0.00,,,-99.99,1.0,HOBO +U30 +Weather +,2013-12-14 08:15:00,
2013-12-14 01:20:00,34.4,25.3,-100.00,SW,218,2.9,5.1,69,0.00,,,-99.99,1.0,HOBO +U30 +Weather +,2013-12-14 08:20:00,
2013-12-14 01:25:00,33.1,25.1,-100.00,South,178,4.0,6.3,72,0.00,,,-99.99,1.0,HOBO +U30 +Weather +,2013-12-14 08:25:00,
2013-12-14 01:30:00,33.9,25.3,-100.00,South,180,3.4,5.6,70,0.00,,,-99.99,1.0,HOBO +U30 +Weather +,2013-12-14 08:30:00,
2013-12-14 01:35:00,34.1,25.4,-100.00,South,184,4.0,7.4,70,0.00,,,-99.99,1.0,HOBO +U30 +Weather +,2013-12-14 08:35:00,
2013-12-14 01:40:00,34.3,25.5,-100.00,South,185,4.0,5.6,69,0.00,,,-99.99,1.0,HOBO +U30 +Weather +,2013-12-14 08:40:00,
2013-12-14 01:45:00,34.1,25.5,-100.00,SSW,199,2.2,4.5,70,0.00,,,-99.99,1.0,HOBO +U30 +Weather +,2013-12-14 08:45:00,
2013-12-14 01:50:00,33.9,25.6,-100.00,SSW,208,2.2,4.5,71,0.00,,,-99.99,1.0,HOBO +U30 +Weather +,2013-12-14 08:50:00,
2013-12-14 01:55:00,34.2,25.6,-100.00,SSW,212,0.7,2.9,70,0.00,,,-99.99,1.0,HOBO +U30 +Weather +,2013-12-14 08:55:00,
2013-12-14 02:00:00,34.3,25.4,-100.00,WSW,243,1.8,4.5,69,0.00,,,-99.99,1.0,HOBO +U30 +Weather +,2013-12-14 09:00:00,
2013-12-14 02:05:00,34.2,25.4,-100.00,West,279,1.8,4.0,69,0.00,,,-99.99,1.0,HOBO +U30 +Weather +,2013-12-14 09:05:00,
2013-12-14 02:10:00,34.4,25.6,-100.00,West,260,0.7,2.2,69,0.00,,,-99.99,1.0,HOBO +U30 +Weather +,2013-12-14 09:10:00,
2013-12-14 02:15:00,34.9,25.6,-100.00,WSW,247,0.7,2.2,68,0.00,,,-99.99,1.0,HOBO +U30 +Weather +,2013-12-14 09:15:00,
2013-12-14 02:20:00,34.2,25.4,-100.00,SSW,205,2.2,6.7,69,0.00,,,-99.99,1.0,HOBO +U30 +Weather +,2013-12-14 09:20:00,
2013-12-14 02:25:00,33.5,25.5,-100.00,South,173,6.3,7.8,72,0.00,,,-99.99,1.0,HOBO +U30 +Weather +,2013-12-14 09:25:00,
2013-12-14 02:30:00,33.9,25.6,-100.00,South,180,3.4,6.3,71,0.00,,,-99.99,1.0,HOBO +U30 +Weather +,2013-12-14 09:30:00,
2013-12-14 02:35:00,33.7,25.7,-100.00,SSW,192,4.0,6.3,72,0.00,,,-99.99,1.0,HOBO +U30 +Weather +,2013-12-14 09:35:00,
2013-12-14 02:40:00,33.7,25.6,-100.00,South,183,1.8,4.0,72,0.00,,,-99.99,1.0,HOBO +U30 +Weather +,2013-12-14 09:40:00,
2013-12-14 02:53:00,34.8,26.0,-100.00,SSE,153,5.1,8.5,70,0.00,,,-99.99,1.0,HOBO +U30 +Weather +,2013-12-14 09:53:00,
2013-12-14 02:55:00,34.5,26.1,-100.00,SSE,159,8.5,13.4,71,0.00,,,-99.99,1.0,HOBO +U30 +Weather +,2013-12-14 09:55:00,
2013-12-14 03:00:00,34.6,26.0,-100.00,SSE,168,6.7,10.1,70,0.00,,,-99.99,1.0,HOBO +U30 +Weather +,2013-12-14 10:00:00,
2013-12-14 03:05:00,34.6,26.1,-100.00,South,188,4.5,6.3,70,0.00,,,-99.99,1.0,HOBO +U30 +Weather +,2013-12-14 10:05:00,
2013-12-14 03:10:00,34.6,26.1,-100.00,SSW,206,5.6,7.8,70,0.00,,,-99.99,1.0,HOBO +U30 +Weather +,2013-12-14 10:10:00,
2013-12-14 03:15:00,34.1,26.0,-100.00,SW,220,5.1,7.4,72,0.00,,,-99.99,1.0,HOBO +U30 +Weather +,2013-12-14 10:15:00,
2013-12-14 03:20:00,33.8,25.8,-100.00,SW,234,5.6,8.9,72,0.00,,,-99.99,1.0,HOBO +U30 +Weather +,2013-12-14 10:20:00,
2013-12-14 03:25:00,33.7,25.1,-100.00,SW,234,8.5,11.9,70,0.00,,,-99.99,1.0,HOBO +U30 +Weather +,2013-12-14 10:25:00,
2013-12-14 03:30:00,33.3,25.0,-100.00,WSW,243,7.4,11.2,71,0.00,,,-99.99,1.0,HOBO +U30 +Weather +,2013-12-14 10:30:00,
2013-12-14 03:35:00,32.8,24.7,-100.00,WSW,240,7.4,10.7,71,0.00,,,-99.99,1.0,HOBO +U30 +Weather +,2013-12-14 10:35:00,
2013-12-14 03:40:00,32.5,24.6,-100.00,WSW,243,4.0,7.8,72,0.00,,,-99.99,1.0,HOBO +U30 +Weather +,2013-12-14 10:40:00,
2013-12-14 03:45:00,31.7,24.3,-100.00,West,261,5.1,8.9,73,0.00,,,-99.99,1.0,HOBO +U30 +Weather +,2013-12-14 10:45:00,
2013-12-14 03:50:00,31.3,24.0,-100.00,WSW,250,5.6,8.9,73,0.00,,,-99.99,1.0,HOBO +U30 +Weather +,2013-12-14 10:50:00,
2013-12-14 03:55:00,30.9,23.8,-100.00,West,260,5.6,7.8,74,0.00,,,-99.99,1.0,HOBO +U30 +Weather +,2013-12-14 10:55:00,
2013-12-14 04:00:00,30.5,23.7,-100.00,WSW,258,6.3,9.6,75,0.00,,,-99.99,1.0,HOBO +U30 +Weather +,2013-12-14 11:00:00,
2013-12-14 04:05:00,30.0,23.3,-100.00,WSW,257,5.1,8.9,75,0.00,,,-99.99,1.0,HOBO +U30 +Weather +,2013-12-14 11:05:00,
2013-12-14 04:10:00,29.7,23.0,-100.00,WSW,256,5.6,8.5,75,0.00,,,-99.99,1.0,HOBO +U30 +Weather +,2013-12-14 11:10:00,
2013-12-14 04:15:00,29.5,22.8,-100.00,WSW,253,6.3,8.5,76,0.00,,,-99.99,1.0,HOBO +U30 +Weather +,2013-12-14 11:15:00,
2013-12-14 04:20:00,29.4,22.8,-100.00,WSW,250,7.4,11.9,76,0.00,,,-99.99,1.0,HOBO +U30 +Weather +,2013-12-14 11:20:00,
2013-12-14 04:25:00,29.4,22.6,-100.00,WSW,241,8.5,11.9,75,0.00,,,-99.99,1.0,HOBO +U30 +Weather +,2013-12-14 11:25:00,
2013-12-14 04:30:00,29.2,22.4,-100.00,WSW,243,6.3,11.2,75,0.00,,,-99.99,1.0,HOBO +U30 +Weather +,2013-12-14 11:30:00,
2013-12-14 04:35:00,29.0,22.3,-100.00,WSW,241,6.7,10.1,75,0.00,,,-99.99,1.0,HOBO +U30 +Weather +,2013-12-14 11:35:00,
2013-12-14 04:40:00,28.8,22.1,-100.00,WSW,248,5.6,11.2,75,0.00,,,-99.99,1.0,HOBO +U30 +Weather +,2013-12-14 11:40:00,
2013-12-14 04:50:00,28.7,22.0,-100.00,WSW,248,6.7,11.2,75,0.00,,,-99.99,1.0,HOBO +U30 +Weather +,2013-12-14 11:50:00,
2013-12-14 04:55:00,28.5,21.8,-100.00,WSW,240,5.6,7.8,75,0.00,,,-99.99,1.0,HOBO +U30 +Weather +,2013-12-14 11:55:00,
2013-12-14 05:00:00,28.4,21.7,-100.00,WSW,240,5.1,7.4,75,0.00,,,-99.99,1.0,HOBO +U30 +Weather +,2013-12-14 12:00:00,
2013-12-14 05:05:00,28.2,21.6,-100.00,WSW,248,5.1,7.8,76,0.00,,,-99.99,1.0,HOBO +U30 +Weather +,2013-12-14 12:05:00,
2013-12-14 05:10:00,28.1,21.5,-100.00,WSW,239,5.1,7.8,76,0.00,,,-99.99,1.0,HOBO +U30 +Weather +,2013-12-14 12:10:00,
2013-12-14 05:15:00,28.0,21.4,-100.00,WSW,250,4.5,7.4,76,0.00,,,-99.99,1.0,HOBO +U30 +Weather +,2013-12-14 12:15:00,
2013-12-14 05:20:00,27.9,21.4,-100.00,WSW,244,4.0,6.3,76,0.00,,,-99.99,1.0,HOBO +U30 +Weather +,2013-12-14 12:20:00,
2013-12-14 05:25:00,28.1,21.4,-100.00,SW,232,4.5,7.4,75,0.00,,,-99.99,1.0,HOBO +U30 +Weather +,2013-12-14 12:25:00,
2013-12-14 05:30:00,28.2,21.5,-100.00,SSW,213,5.1,8.5,75,0.00,,,-99.99,1.0,HOBO +U30 +Weather +,2013-12-14 12:30:00,
2013-12-14 05:35:00,28.0,21.5,-100.00,SW,225,3.4,6.3,76,0.00,,,-99.99,1.0,HOBO +U30 +Weather +,2013-12-14 12:35:00,
2013-12-14 05:40:00,27.9,21.3,-100.00,SW,222,2.9,6.7,76,0.00,,,-99.99,1.0,HOBO +U30 +Weather +,2013-12-14 12:40:00,
2013-12-14 05:45:00,27.9,21.5,-100.00,SW,232,2.2,5.1,76,0.00,,,-99.99,1.0,HOBO +U30 +Weather +,2013-12-14 12:45:00,
2013-12-14 05:50:00,27.6,21.1,-100.00,WSW,257,4.0,7.8,76,0.00,,,-99.99,1.0,HOBO +U30 +Weather +,2013-12-14 12:50:00,
2013-12-14 05:55:00,28.0,21.2,-100.00,WSW,246,5.6,8.5,75,0.00,,,-99.99,1.0,HOBO +U30 +Weather +,2013-12-14 12:55:00,
2013-12-14 06:00:00,27.9,21.2,-100.00,SW,225,4.0,7.4,75,0.00,,,-99.99,1.0,HOBO +U30 +Weather +,2013-12-14 13:00:00,
2013-12-14 06:05:00,27.1,20.6,-100.00,SSW,202,3.4,6.7,76,0.00,,,-99.99,1.0,HOBO +U30 +Weather +,2013-12-14 13:05:00,
2013-12-14 06:10:00,26.6,20.9,-100.00,South,190,4.0,6.7,78,0.00,,,-99.99,1.0,HOBO +U30 +Weather +,2013-12-14 13:10:00,
2013-12-14 06:15:00,28.7,21.7,-100.00,SSW,202,7.4,14.1,74,0.00,,,-99.99,1.0,HOBO +U30 +Weather +,2013-12-14 13:15:00,
2013-12-14 06:20:00,29.7,21.4,-100.00,SW,222,8.9,14.1,71,0.00,,,-99.99,1.0,HOBO +U30 +Weather +,2013-12-14 13:20:00,
2013-12-14 06:25:00,29.1,21.1,-100.00,SW,233,6.7,9.6,71,0.00,,,-99.99,1.0,HOBO +U30 +Weather +,2013-12-14 13:25:00,
2013-12-14 06:30:00,28.6,20.9,-100.00,WSW,244,6.3,10.1,72,0.00,,,-99.99,1.0,HOBO +U30 +Weather +,2013-12-14 13:30:00,
2013-12-14 06:35:00,29.1,21.1,-100.00,WSW,240,7.4,13.0,71,0.00,,,-99.99,1.0,HOBO +U30 +Weather +,2013-12-14 13:35:00,
2013-12-14 06:48:00,29.5,21.0,-100.00,SW,230,9.6,14.1,70,0.00,,,-99.99,1.0,HOBO +U30 +Weather +,2013-12-14 13:48:00,
2013-12-14 06:50:00,28.7,20.6,-100.00,SW,225,7.4,13.0,71,0.00,,,-99.99,1.0,HOBO +U30 +Weather +,2013-12-14 13:50:00,
2013-12-14 06:55:00,28.6,20.7,-100.00,SW,226,6.3,10.7,71,0.00,,,-99.99,1.0,HOBO +U30 +Weather +,2013-12-14 13:55:00,
2013-12-14 07:00:00,28.6,20.7,-100.00,SW,225,6.7,10.7,71,0.00,,,-99.99,1.0,HOBO +U30 +Weather +,2013-12-14 14:00:00,
2013-12-14 07:05:00,28.9,20.7,-100.00,SW,225,9.6,15.2,71,0.00,,,-99.99,1.0,HOBO +U30 +Weather +,2013-12-14 14:05:00,
2013-12-14 07:10:00,28.3,20.5,-100.00,SW,216,8.5,13.4,72,0.00,,,-99.99,1.0,HOBO +U30 +Weather +,2013-12-14 14:10:00,
2013-12-14 07:15:00,28.1,20.4,-100.00,SW,225,8.5,13.4,72,0.00,,,-99.99,1.0,HOBO +U30 +Weather +,2013-12-14 14:15:00,
2013-12-14 07:20:00,28.1,20.4,-100.00,SW,223,7.8,11.2,72,0.00,,,-99.99,1.0,HOBO +U30 +Weather +,2013-12-14 14:20:00,
2013-12-14 07:25:00,27.8,20.4,-100.00,SSW,213,7.8,13.0,73,0.00,,,-99.99,1.0,HOBO +U30 +Weather +,2013-12-14 14:25:00,
2013-12-14 07:30:00,28.1,20.5,-100.00,SW,226,8.9,14.1,73,0.00,,,-99.99,2.0,HOBO +U30 +Weather +,2013-12-14 14:30:00,
2013-12-14 07:35:00,27.9,20.4,-100.00,SW,226,8.9,14.1,73,0.00,,,-99.99,7.0,HOBO +U30 +Weather +,2013-12-14 14:35:00,
2013-12-14 07:45:00,27.3,20.3,-100.00,WSW,241,6.7,13.0,74,0.00,,,-99.99,8.0,HOBO +U30 +Weather +,2013-12-14 14:45:00,
2013-12-14 07:46:00,27.7,20.3,-100.00,SW,229,8.5,12.3,73,0.00,,,-99.99,7.0,HOBO +U30 +Weather +,2013-12-14 14:46:00,
2013-12-14 07:50:00,27.6,20.4,-100.00,SW,230,8.5,13.0,73,0.00,,,-99.99,7.0,HOBO +U30 +Weather +,2013-12-14 14:50:00,
2013-12-14 07:55:00,27.4,20.3,-100.00,WSW,250,8.9,13.4,74,0.00,,,-99.99,12.0,HOBO +U30 +Weather +,2013-12-14 14:55:00,
2013-12-14 08:00:00,27.3,20.3,-100.00,WSW,240,8.9,13.0,74,0.00,,,-99.99,19.0,HOBO +U30 +Weather +,2013-12-14 15:00:00,
2013-12-14 08:05:00,27.4,20.3,-100.00,WSW,246,9.6,13.4,74,0.00,,,-99.99,24.0,HOBO +U30 +Weather +,2013-12-14 15:05:00,
2013-12-14 08:10:00,27.6,20.4,-100.00,WSW,244,10.1,16.3,73,0.00,,,-99.99,37.0,HOBO +U30 +Weather +,2013-12-14 15:10:00,
2013-12-14 08:15:00,27.8,20.6,-100.00,SW,234,6.7,10.7,74,0.00,,,-99.99,52.0,HOBO +U30 +Weather +,2013-12-14 15:15:00,
2013-12-14 08:20:00,27.9,20.6,-100.00,SW,233,6.7,10.7,73,0.00,,,-99.99,41.0,HOBO +U30 +Weather +,2013-12-14 15:20:00,
2013-12-14 08:25:00,28.4,20.8,-100.00,SW,225,5.6,10.1,72,0.00,,,-99.99,92.0,HOBO +U30 +Weather +,2013-12-14 15:25:00,
2013-12-14 08:30:00,28.3,20.7,-100.00,SW,223,6.7,12.3,72,0.00,,,-99.99,82.0,HOBO +U30 +Weather +,2013-12-14 15:30:00,
2013-12-14 08:35:00,28.5,20.8,-100.00,SW,225,6.3,10.7,72,0.00,,,-99.99,83.0,HOBO +U30 +Weather +,2013-12-14 15:35:00,
2013-12-14 08:45:00,28.6,20.8,-100.00,SW,229,6.3,10.1,72,0.00,,,-99.99,93.0,HOBO +U30 +Weather +,2013-12-14 15:45:00,
2013-12-14 08:50:00,29.6,21.3,-100.00,SW,227,6.7,10.1,70,0.00,,,-99.99,158.0,HOBO +U30 +Weather +,2013-12-14 15:50:00,
2013-12-14 08:55:00,30.0,21.4,-100.00,SW,223,6.3,10.7,70,0.00,,,-99.99,109.0,HOBO +U30 +Weather +,2013-12-14 15:55:00,
2013-12-14 09:00:00,30.4,21.6,-100.00,SW,226,6.7,12.3,69,0.00,,,-99.99,109.0,HOBO +U30 +Weather +,2013-12-14 16:00:00,
2013-12-14 09:05:00,30.6,21.6,-100.00,SW,222,7.4,11.9,69,0.00,,,-99.99,119.0,HOBO +U30 +Weather +,2013-12-14 16:05:00,
2013-12-14 09:10:00,30.8,21.7,-100.00,SW,226,6.7,10.7,68,0.00,,,-99.99,147.0,HOBO +U30 +Weather +,2013-12-14 16:10:00,
2013-12-14 09:15:00,31.4,22.2,-100.00,SW,219,5.6,10.1,68,0.00,,,-99.99,149.0,HOBO +U30 +Weather +,2013-12-14 16:15:00,
2013-12-14 09:20:00,31.7,22.3,-100.00,SSW,212,8.5,14.1,67,0.00,,,-99.99,174.0,HOBO +U30 +Weather +,2013-12-14 16:20:00,
2013-12-14 09:25:00,31.7,22.2,-100.00,SSW,213,9.6,14.5,67,0.00,,,-99.99,128.0,HOBO +U30 +Weather +,2013-12-14 16:25:00,
2013-12-14 09:30:00,31.7,22.3,-100.00,SSW,206,10.1,14.5,67,0.00,,,-99.99,137.0,HOBO +U30 +Weather +,2013-12-14 16:30:00,
2013-12-14 09:44:00,31.6,22.3,-100.00,SSW,208,8.5,14.1,68,0.00,,,-99.99,109.0,HOBO +U30 +Weather +,2013-12-14 16:44:00,
2013-12-14 09:45:00,32.1,22.7,-100.00,SSW,202,7.8,12.3,67,0.00,,,-99.99,183.0,HOBO +U30 +Weather +,2013-12-14 16:45:00,
2013-12-14 09:50:00,33.2,22.9,-100.00,SSW,206,9.6,14.1,65,0.00,,,-99.99,194.0,HOBO +U30 +Weather +,2013-12-14 16:50:00,
2013-12-14 09:55:00,33.6,22.8,-100.00,SSW,211,8.5,14.1,64,0.00,,,-99.99,198.0,HOBO +U30 +Weather +,2013-12-14 16:55:00,
2013-12-14 10:00:00,33.8,22.8,-100.00,SSW,209,8.5,15.2,63,0.00,,,-99.99,223.0,HOBO +U30 +Weather +,2013-12-14 17:00:00,
2013-12-14 10:05:00,34.0,22.9,-100.00,SSW,208,7.8,14.5,63,0.00,,,-99.99,223.0,HOBO +U30 +Weather +,2013-12-14 17:05:00,
2013-12-14 10:10:00,34.1,22.7,-100.00,SW,218,7.4,11.2,62,0.00,,,-99.99,202.0,HOBO +U30 +Weather +,2013-12-14 17:10:00,
2013-12-14 10:15:00,34.2,22.9,-100.00,SW,226,7.4,14.1,62,0.00,,,-99.99,209.0,HOBO +U30 +Weather +,2013-12-14 17:15:00,
2013-12-14 10:20:00,34.0,22.6,-100.00,SW,227,7.4,14.5,62,0.00,,,-99.99,209.0,HOBO +U30 +Weather +,2013-12-14 17:20:00,
2013-12-14 10:25:00,34.3,22.7,-100.00,WSW,237,8.5,14.1,62,0.00,,,-99.99,271.0,HOBO +U30 +Weather +,2013-12-14 17:25:00,
2013-12-14 10:30:00,35.1,23.4,-100.00,SW,219,7.4,10.1,62,0.00,,,-99.99,306.0,HOBO +U30 +Weather +,2013-12-14 17:30:00,
2013-12-14 10:44:00,35.2,23.5,-100.00,SW,222,6.7,13.4,61,0.00,,,-99.99,274.0,HOBO +U30 +Weather +,2013-12-14 17:44:00,
2013-12-14 10:45:00,35.8,24.0,-100.00,SW,215,7.4,11.2,61,0.00,,,-99.99,378.0,HOBO +U30 +Weather +,2013-12-14 17:45:00,
2013-12-14 10:50:00,35.9,23.6,-100.00,SSW,206,7.4,11.9,60,0.00,,,-99.99,351.0,HOBO +U30 +Weather +,2013-12-14 17:50:00,
2013-12-14 10:55:00,35.9,23.6,-100.00,SSW,209,7.8,13.0,60,0.00,,,-99.99,234.0,HOBO +U30 +Weather +,2013-12-14 17:55:00,
2013-12-14 11:00:00,35.9,23.5,-100.00,SW,229,8.5,15.2,60,0.00,,,-99.99,302.0,HOBO +U30 +Weather +,2013-12-14 18:00:00,
2013-12-14 11:05:00,36.0,23.7,-100.00,SW,232,8.9,15.2,60,0.00,,,-99.99,308.0,HOBO +U30 +Weather +,2013-12-14 18:05:00,
2013-12-14 11:10:00,36.3,24.1,-100.00,SW,230,6.3,10.7,60,0.00,,,-99.99,234.0,HOBO +U30 +Weather +,2013-12-14 18:10:00,
2013-12-14 11:15:00,36.2,23.8,-100.00,SW,229,6.3,9.6,60,0.00,,,-99.99,244.0,HOBO +U30 +Weather +,2013-12-14 18:15:00,
2013-12-14 11:20:00,36.5,23.9,-100.00,WSW,237,7.4,11.9,59,0.00,,,-99.99,256.0,HOBO +U30 +Weather +,2013-12-14 18:20:00,
2013-12-14 11:25:00,36.4,23.8,-100.00,SW,234,7.8,13.0,60,0.00,,,-99.99,326.0,HOBO +U30 +Weather +,2013-12-14 18:25:00,
2013-12-14 11:30:00,36.6,24.0,-100.00,SW,236,8.5,14.1,59,0.00,,,-99.99,254.0,HOBO +U30 +Weather +,2013-12-14 18:30:00,
2013-12-14 11:42:00,36.4,23.8,-100.00,SW,220,8.9,14.1,60,0.00,,,-99.99,201.0,HOBO +U30 +Weather +,2013-12-14 18:42:00,
2013-12-14 11:45:00,36.8,24.2,-100.00,SW,220,7.4,14.1,59,0.00,,,-99.99,251.0,HOBO +U30 +Weather +,2013-12-14 18:45:00,
2013-12-14 11:50:00,37.3,24.0,-100.00,SW,226,8.5,13.0,58,0.00,,,-99.99,349.0,HOBO +U30 +Weather +,2013-12-14 18:50:00,
2013-12-14 11:55:00,37.0,23.8,-100.00,WSW,239,10.1,17.4,58,0.00,,,-99.99,369.0,HOBO +U30 +Weather +,2013-12-14 18:55:00,
2013-12-14 12:00:00,37.3,24.2,-100.00,SW,229,9.6,17.4,58,0.00,,,-99.99,368.0,HOBO +U30 +Weather +,2013-12-14 19:00:00,
2013-12-14 12:05:00,37.0,24.0,-100.00,SW,234,10.7,18.6,58,0.00,,,-99.99,368.0,HOBO +U30 +Weather +,2013-12-14 19:05:00,
2013-12-14 12:10:00,37.5,24.2,-100.00,SW,225,11.2,17.4,58,0.00,,,-99.99,368.0,HOBO +U30 +Weather +,2013-12-14 19:10:00,
2013-12-14 12:15:00,37.2,23.9,-100.00,WSW,246,12.3,21.5,58,0.00,,,-99.99,366.0,HOBO +U30 +Weather +,2013-12-14 19:15:00,
2013-12-14 12:20:00,37.6,24.4,-100.00,SW,227,13.4,20.8,58,0.00,,,-99.99,364.0,HOBO +U30 +Weather +,2013-12-14 19:20:00,
2013-12-14 12:25:00,37.6,24.3,-100.00,SW,225,13.4,19.7,58,0.00,,,-99.99,362.0,HOBO +U30 +Weather +,2013-12-14 19:25:00,
2013-12-14 12:30:00,37.4,24.2,-100.00,SW,220,17.4,26.4,58,0.00,,,-99.99,361.0,HOBO +U30 +Weather +,2013-12-14 19:30:00,
2013-12-14 12:40:00,37.6,24.8,-100.00,SW,219,14.5,25.3,59,0.00,,,-99.99,368.0,HOBO +U30 +Weather +,2013-12-14 19:40:00,
2013-12-14 12:41:00,37.3,24.2,-100.00,SW,220,15.9,26.4,58,0.00,,,-99.99,361.0,HOBO +U30 +Weather +,2013-12-14 19:41:00,
2013-12-14 12:45:00,37.4,24.7,-100.00,SSW,213,15.2,22.6,59,0.00,,,-99.99,213.0,HOBO +U30 +Weather +,2013-12-14 19:45:00,
2013-12-14 12:50:00,37.9,25.1,-100.00,SSW,209,12.3,18.1,59,0.00,,,-99.99,326.0,HOBO +U30 +Weather +,2013-12-14 19:50:00,
2013-12-14 12:55:00,38.3,25.2,-100.00,SSW,209,11.2,18.6,58,0.00,,,-99.99,364.0,HOBO +U30 +Weather +,2013-12-14 19:55:00,
2013-12-14 13:00:00,38.1,24.8,-100.00,SSW,212,14.1,23.0,58,0.00,,,-99.99,226.0,HOBO +U30 +Weather +,2013-12-14 20:00:00,
2013-12-14 13:05:00,38.6,25.2,-100.00,SW,220,11.2,17.0,58,0.00,,,-99.99,314.0,HOBO +U30 +Weather +,2013-12-14 20:05:00,
2013-12-14 13:10:00,38.8,25.5,-100.00,SW,219,8.5,14.1,58,0.00,,,-99.99,239.0,HOBO +U30 +Weather +,2013-12-14 20:10:00,
2013-12-14 13:15:00,38.5,25.1,-100.00,SW,225,8.9,16.3,58,0.00,,,-99.99,212.0,HOBO +U30 +Weather +,2013-12-14 20:15:00,
2013-12-14 13:20:00,38.5,25.2,-100.00,SW,222,6.7,11.9,58,0.00,,,-99.99,197.0,HOBO +U30 +Weather +,2013-12-14 20:20:00,
2013-12-14 13:25:00,38.3,25.4,-100.00,SW,230,8.5,14.1,59,0.00,,,-99.99,204.0,HOBO +U30 +Weather +,2013-12-14 20:25:00,
2013-12-14 13:30:00,38.2,25.2,-100.00,SW,222,7.8,14.1,59,0.00,,,-99.99,212.0,HOBO +U30 +Weather +,2013-12-14 20:30:00,
2013-12-14 13:40:00,38.5,25.6,-100.00,SW,222,6.7,10.7,59,0.00,,,-99.99,221.0,HOBO +U30 +Weather +,2013-12-14 20:40:00,
2013-12-14 13:45:00,38.8,25.3,-100.00,SW,230,8.5,14.5,57,0.00,,,-99.99,178.0,HOBO +U30 +Weather +,2013-12-14 20:45:00,
2013-12-14 13:50:00,39.0,25.4,-100.00,WSW,237,8.9,15.2,57,0.00,,,-99.99,171.0,HOBO +U30 +Weather +,2013-12-14 20:50:00,
2013-12-14 13:55:00,38.9,25.2,-100.00,WSW,237,9.6,14.5,57,0.00,,,-99.99,173.0,HOBO +U30 +Weather +,2013-12-14 20:55:00,
2013-12-14 14:00:00,39.0,25.5,-100.00,SW,232,7.8,13.4,58,0.00,,,-99.99,146.0,HOBO +U30 +Weather +,2013-12-14 21:00:00,
2013-12-14 14:05:00,39.1,25.8,-100.00,SW,216,6.3,11.9,58,0.00,,,-99.99,131.0,HOBO +U30 +Weather +,2013-12-14 21:05:00,
2013-12-14 14:10:00,39.1,26.0,-100.00,SSW,213,5.6,10.1,59,0.00,,,-99.99,133.0,HOBO +U30 +Weather +,2013-12-14 21:10:00,
2013-12-14 14:15:00,38.7,26.0,-100.00,SSW,206,6.7,11.9,60,0.00,,,-99.99,123.0,HOBO +U30 +Weather +,2013-12-14 21:15:00,
2013-12-14 14:20:00,38.8,26.2,-100.00,SW,222,8.5,14.1,60,0.00,,,-99.99,124.0,HOBO +U30 +Weather +,2013-12-14 21:20:00,
2013-12-14 14:25:00,38.9,26.0,-100.00,SW,218,7.8,16.3,59,0.00,,,-99.99,126.0,HOBO +U30 +Weather +,2013-12-14 21:25:00,
2013-12-14 14:39:00,38.8,26.0,-100.00,SW,230,8.5,15.9,59,0.00,,,-99.99,129.0,HOBO +U30 +Weather +,2013-12-14 21:39:00,
2013-12-14 14:40:00,38.7,26.1,-100.00,WSW,240,10.1,17.4,60,0.00,,,-99.99,111.0,HOBO +U30 +Weather +,2013-12-14 21:40:00,
2013-12-14 14:45:00,38.6,26.0,-100.00,SW,230,9.6,15.9,60,0.00,,,-99.99,101.0,HOBO +U30 +Weather +,2013-12-14 21:45:00,
2013-12-14 14:50:00,38.6,25.9,-100.00,WSW,240,9.6,17.4,60,0.00,,,-99.99,101.0,HOBO +U30 +Weather +,2013-12-14 21:50:00,
2013-12-14 14:55:00,38.5,25.5,-100.00,SW,234,11.9,17.0,59,0.00,,,-99.99,94.0,HOBO +U30 +Weather +,2013-12-14 21:55:00,
2013-12-14 15:00:00,38.4,25.3,-100.00,SW,233,8.5,16.3,58,0.00,,,-99.99,93.0,HOBO +U30 +Weather +,2013-12-14 22:00:00,
2013-12-14 15:05:00,38.6,25.6,-100.00,SW,218,9.6,19.2,59,0.00,,,-99.99,94.0,HOBO +U30 +Weather +,2013-12-14 22:05:00,
2013-12-14 15:10:00,38.4,25.6,-100.00,SSW,209,9.6,17.0,59,0.00,,,-99.99,89.0,HOBO +U30 +Weather +,2013-12-14 22:10:00,
2013-12-14 15:15:00,38.3,25.8,-100.00,SSW,204,8.5,13.4,60,0.00,,,-99.99,83.0,HOBO +U30 +Weather +,2013-12-14 22:15:00,
2013-12-14 15:20:00,38.7,26.1,-100.00,SSW,208,7.4,12.3,60,0.00,,,-99.99,77.0,HOBO +U30 +Weather +,2013-12-14 22:20:00,
2013-12-14 15:25:00,38.7,26.1,-100.00,SSW,197,5.6,10.7,60,0.00,,,-99.99,72.0,HOBO +U30 +Weather +,2013-12-14 22:25:00,
2013-12-14 15:39:00,38.8,26.3,-100.00,South,188,4.5,8.5,60,0.00,,,-99.99,67.0,HOBO +U30 +Weather +,2013-12-14 22:39:00,
2013-12-14 15:40:00,38.6,26.1,-100.00,SSW,197,8.9,13.0,60,0.00,,,-99.99,53.0,HOBO +U30 +Weather +,2013-12-14 22:40:00,
2013-12-14 15:45:00,38.4,26.0,-100.00,South,184,9.6,13.4,60,0.00,,,-99.99,46.0,HOBO +U30 +Weather +,2013-12-14 22:45:00,
2013-12-14 15:50:00,38.3,26.0,-100.00,South,180,8.9,13.0,60,0.00,,,-99.99,34.0,HOBO +U30 +Weather +,2013-12-14 22:50:00,
2013-12-14 15:55:00,38.4,26.1,-100.00,South,185,9.6,13.4,60,0.00,,,-99.99,29.0,HOBO +U30 +Weather +,2013-12-14 22:55:00,
2013-12-14 16:00:00,38.4,26.2,-100.00,SSW,192,9.6,17.0,61,0.00,,,-99.99,24.0,HOBO +U30 +Weather +,2013-12-14 23:00:00,
2013-12-14 16:05:00,38.4,26.3,-100.00,SSW,202,9.6,16.3,61,0.00,,,-99.99,19.0,HOBO +U30 +Weather +,2013-12-14 23:05:00,
2013-12-14 16:10:00,38.2,26.4,-100.00,SSW,206,9.6,13.0,62,0.00,,,-99.99,12.0,HOBO +U30 +Weather +,2013-12-14 23:10:00,
2013-12-14 16:15:00,38.2,26.7,-100.00,SSW,205,10.1,13.4,62,0.00,,,-99.99,7.0,HOBO +U30 +Weather +,2013-12-14 23:15:00,
2013-12-14 16:20:00,40.3,27.1,-100.00,SW,222,8.5,13.4,58,0.00,,,-99.99,3.0,HOBO +U30 +Weather +,2013-12-14 23:20:00,
2013-12-14 16:25:00,41.8,27.1,-100.00,WSW,243,10.1,15.9,55,0.00,,,-99.99,2.0,HOBO +U30 +Weather +,2013-12-14 23:25:00,
2013-12-14 16:37:00,42.5,26.9,-100.00,WSW,250,9.6,15.2,53,0.00,,,-99.99,1.0,HOBO +U30 +Weather +,2013-12-14 23:37:00,
2013-12-14 16:40:00,43.1,27.1,-100.00,WSW,247,10.7,18.1,52,0.00,,,-99.99,1.0,HOBO +U30 +Weather +,2013-12-14 23:40:00,
2013-12-14 16:45:00,43.8,27.2,-100.00,WSW,241,13.4,19.7,51,0.00,,,-99.99,1.0,HOBO +U30 +Weather +,2013-12-14 23:45:00,
2013-12-14 16:50:00,44.2,27.4,-100.00,WSW,239,13.0,22.6,51,0.00,,,-99.99,1.0,HOBO +U30 +Weather +,2013-12-14 23:50:00,
2013-12-14 16:55:00,44.6,27.6,-100.00,WSW,240,14.5,24.8,50,0.00,,,-99.99,1.0,HOBO +U30 +Weather +,2013-12-14 23:55:00,
2013-12-14 17:00:00,45.2,27.6,-100.00,WSW,239,14.5,28.2,49,0.00,,,-99.99,1.0,HOBO +U30 +Weather +,2013-12-15 00:00:00,
2013-12-14 17:05:00,45.3,27.6,-100.00,WSW,243,14.5,25.3,49,0.00,,,-99.99,1.0,HOBO +U30 +Weather +,2013-12-15 00:05:00,
2013-12-14 17:10:00,44.7,27.8,-100.00,WSW,237,11.2,22.6,51,0.00,,,-99.99,1.0,HOBO +U30 +Weather +,2013-12-15 00:10:00,
2013-12-14 17:15:00,44.3,27.5,-100.00,WSW,239,15.2,24.2,51,0.00,,,-99.99,1.0,HOBO +U30 +Weather +,2013-12-15 00:15:00,
2013-12-14 17:20:00,44.3,27.4,-100.00,WSW,241,14.1,23.0,51,0.00,,,-99.99,1.0,HOBO +U30 +Weather +,2013-12-15 00:20:00,
2013-12-14 17:25:00,44.2,27.6,-100.00,WSW,240,14.5,23.7,51,0.00,,,-99.99,1.0,HOBO +U30 +Weather +,2013-12-15 00:25:00,
2013-12-14 17:35:00,45.1,27.9,-100.00,WSW,240,18.1,30.4,50,0.00,,,-99.99,1.0,HOBO +U30 +Weather +,2013-12-15 00:35:00,
2013-12-14 17:36:00,44.6,27.8,-100.00,WSW,243,16.3,25.9,51,0.00,,,-99.99,1.0,HOBO +U30 +Weather +,2013-12-15 00:36:00,
2013-12-14 17:40:00,45.1,27.9,-100.00,WSW,244,17.4,30.9,50,0.00,,,-99.99,1.0,HOBO +U30 +Weather +,2013-12-15 00:40:00,
2013-12-14 17:45:00,45.0,28.0,-100.00,WSW,244,17.0,27.1,51,0.00,,,-99.99,1.0,HOBO +U30 +Weather +,2013-12-15 00:45:00,
2013-12-14 17:50:00,45.0,28.1,-100.00,SW,234,14.5,29.8,51,0.00,,,-99.99,1.0,HOBO +U30 +Weather +,2013-12-15 00:50:00,
2013-12-14 17:55:00,45.3,28.1,-100.00,WSW,239,17.0,25.9,50,0.00,,,-99.99,1.0,HOBO +U30 +Weather +,2013-12-15 00:55:00,
2013-12-14 18:00:00,44.2,27.6,-100.00,SW,223,14.5,25.9,51,0.00,,,-99.99,1.0,HOBO +U30 +Weather +,2013-12-15 01:00:00,
2013-12-14 18:05:00,42.0,27.5,-100.00,SSW,206,11.9,19.2,56,0.00,,,-99.99,1.0,HOBO +U30 +Weather +,2013-12-15 01:05:00,
2013-12-14 18:10:00,42.9,27.6,-100.00,SW,225,12.3,22.6,54,0.00,,,-99.99,1.0,HOBO +U30 +Weather +,2013-12-15 01:10:00,
2013-12-14 18:15:00,43.2,27.6,-100.00,SW,232,11.9,18.1,53,0.00,,,-99.99,1.0,HOBO +U30 +Weather +,2013-12-15 01:15:00,
2013-12-14 18:20:00,43.3,27.7,-100.00,SW,230,10.7,21.5,53,0.00,,,-99.99,1.0,HOBO +U30 +Weather +,2013-12-15 01:20:00,
2013-12-14 18:25:00,43.4,27.8,-100.00,SW,233,8.9,17.4,53,0.00,,,-99.99,1.0,HOBO +U30 +Weather +,2013-12-15 01:25:00,
2013-12-14 18:35:00,43.6,27.8,-100.00,SW,233,10.7,20.8,53,0.00,,,-99.99,1.0,HOBO +U30 +Weather +,2013-12-15 01:35:00,
2013-12-14 18:40:00,43.5,27.9,-100.00,SW,218,6.3,13.4,53,0.00,,,-99.99,1.0,HOBO +U30 +Weather +,2013-12-15 01:40:00,
2013-12-14 18:45:00,43.4,28.0,-100.00,SSW,206,8.5,13.4,54,0.00,,,-99.99,1.0,HOBO +U30 +Weather +,2013-12-15 01:45:00,
2013-12-14 18:50:00,42.6,27.7,-100.00,South,191,8.9,14.1,55,0.00,,,-99.99,1.0,HOBO +U30 +Weather +,2013-12-15 01:50:00,
2013-12-14 18:55:00,39.1,26.3,-100.00,South,171,8.5,11.9,59,0.00,,,-99.99,1.0,HOBO +U30 +Weather +,2013-12-15 01:55:00,
2013-12-14 19:00:00,38.9,26.3,-100.00,South,173,8.9,13.4,60,0.00,,,-99.99,1.0,HOBO +U30 +Weather +,2013-12-15 02:00:00,
2013-12-14 19:05:00,39.2,26.3,-100.00,South,174,10.1,14.1,59,0.00,,,-99.99,1.0,HOBO +U30 +Weather +,2013-12-15 02:05:00,
2013-12-14 19:10:00,39.5,26.2,-100.00,South,183,7.8,11.2,58,0.00,,,-99.99,1.0,HOBO +U30 +Weather +,2013-12-15 02:10:00,
2013-12-14 19:15:00,39.6,26.2,-100.00,South,175,7.4,11.2,58,0.00,,,-99.99,1.0,HOBO +U30 +Weather +,2013-12-15 02:15:00,
2013-12-14 19:20:00,39.6,26.3,-100.00,SSE,166,6.7,10.1,58,0.00,,,-99.99,1.0,HOBO +U30 +Weather +,2013-12-15 02:20:00,
2013-12-14 19:34:00,39.7,26.3,-100.00,South,187,6.3,11.2,58,0.00,,,-99.99,1.0,HOBO +U30 +Weather +,2013-12-15 02:34:00,
2013-12-14 19:35:00,39.8,26.2,-100.00,SSW,206,7.8,13.0,57,0.00,,,-99.99,1.0,HOBO +U30 +Weather +,2013-12-15 02:35:00,
2013-12-14 19:40:00,40.0,26.2,-100.00,SSW,213,10.1,15.2,57,0.00,,,-99.99,1.0,HOBO +U30 +Weather +,2013-12-15 02:40:00,
2013-12-14 19:45:00,40.5,26.1,-100.00,SW,216,10.7,17.0,56,0.00,,,-99.99,1.0,HOBO +U30 +Weather +,2013-12-15 02:45:00,
2013-12-14 19:50:00,40.4,26.0,-100.00,SW,223,8.5,13.0,55,0.00,,,-99.99,1.0,HOBO +U30 +Weather +,2013-12-15 02:50:00,
2013-12-14 19:55:00,40.2,26.0,-100.00,SW,223,7.8,13.4,56,0.00,,,-99.99,1.0,HOBO +U30 +Weather +,2013-12-15 02:55:00,
2013-12-14 20:00:00,40.2,25.9,-100.00,SW,219,7.4,11.9,56,0.00,,,-99.99,1.0,HOBO +U30 +Weather +,2013-12-15 03:00:00,
2013-12-14 20:05:00,39.8,25.8,-100.00,SSW,204,7.4,11.2,57,0.00,,,-99.99,1.0,HOBO +U30 +Weather +,2013-12-15 03:05:00,
2013-12-14 20:10:00,39.2,26.0,-100.00,SSW,199,6.7,11.9,58,0.00,,,-99.99,1.0,HOBO +U30 +Weather +,2013-12-15 03:10:00,
2013-12-14 20:15:00,38.8,26.1,-100.00,SSW,195,5.6,11.2,59,0.00,,,-99.99,1.0,HOBO +U30 +Weather +,2013-12-15 03:15:00,
2013-12-14 20:20:00,39.2,26.0,-100.00,SSW,201,6.7,12.3,58,0.00,,,-99.99,1.0,HOBO +U30 +Weather +,2013-12-15 03:20:00,
2013-12-14 20:33:00,38.9,26.2,-100.00,SSW,194,6.7,10.7,59,0.00,,,-99.99,1.0,HOBO +U30 +Weather +,2013-12-15 03:33:00,
2013-12-14 20:35:00,39.6,26.3,-100.00,SSW,209,5.6,11.9,58,0.00,,,-99.99,1.0,HOBO +U30 +Weather +,2013-12-15 03:35:00,
2013-12-14 20:40:00,39.3,26.3,-100.00,SSW,202,6.7,10.7,59,0.00,,,-99.99,1.0,HOBO +U30 +Weather +,2013-12-15 03:40:00,
2013-12-14 20:45:00,39.0,26.3,-100.00,SSW,204,6.3,10.1,59,0.00,,,-99.99,1.0,HOBO +U30 +Weather +,2013-12-15 03:45:00,
2013-12-14 20:50:00,38.7,26.2,-100.00,South,191,5.6,10.7,60,0.00,,,-99.99,1.0,HOBO +U30 +Weather +,2013-12-15 03:50:00,
2013-12-14 20:55:00,38.8,26.0,-100.00,South,178,9.6,14.1,59,0.00,,,-99.99,1.0,HOBO +U30 +Weather +,2013-12-15 03:55:00,
2013-12-14 21:00:00,38.8,26.0,-100.00,South,180,11.9,18.1,59,0.00,,,-99.99,1.0,HOBO +U30 +Weather +,2013-12-15 04:00:00,
2013-12-14 21:05:00,38.5,26.1,-100.00,SSW,194,8.5,14.5,60,0.00,,,-99.99,1.0,HOBO +U30 +Weather +,2013-12-15 04:05:00,
2013-12-14 21:10:00,38.3,26.1,-100.00,SSW,213,7.8,14.5,61,0.00,,,-99.99,1.0,HOBO +U30 +Weather +,2013-12-15 04:10:00,
2013-12-14 21:15:00,38.3,26.1,-100.00,SW,220,5.6,11.9,61,0.00,,,-99.99,1.0,HOBO +U30 +Weather +,2013-12-15 04:15:00,
2013-12-14 21:20:00,38.5,26.1,-100.00,SW,226,6.7,10.7,60,0.00,,,-99.99,1.0,HOBO +U30 +Weather +,2013-12-15 04:20:00,
2013-12-14 21:32:00,38.6,26.1,-100.00,SW,229,7.8,14.1,60,0.00,,,-99.99,1.0,HOBO +U30 +Weather +,2013-12-15 04:32:00,
2013-12-14 21:35:00,39.3,26.4,-100.00,WSW,239,10.1,18.1,59,0.00,,,-99.99,1.0,HOBO +U30 +Weather +,2013-12-15 04:35:00,
2013-12-14 21:40:00,39.5,26.6,-100.00,WSW,246,9.6,14.1,59,0.00,,,-99.99,1.0,HOBO +U30 +Weather +,2013-12-15 04:40:00,
2013-12-14 21:45:00,39.9,26.8,-100.00,SW,233,8.9,14.5,59,0.00,,,-99.99,1.0,HOBO +U30 +Weather +,2013-12-15 04:45:00,
2013-12-14 21:50:00,40.4,26.8,-100.00,WSW,237,9.6,14.5,58,0.00,,,-99.99,1.0,HOBO +U30 +Weather +,2013-12-15 04:50:00,
2013-12-14 21:55:00,41.0,26.7,-100.00,SW,232,9.6,16.3,56,0.00,,,-99.99,1.0,HOBO +U30 +Weather +,2013-12-15 04:55:00,
2013-12-14 22:00:00,41.3,26.7,-100.00,SW,225,8.5,13.4,55,0.00,,,-99.99,1.0,HOBO +U30 +Weather +,2013-12-15 05:00:00,
2013-12-14 22:05:00,41.4,26.6,-100.00,SW,222,8.9,13.0,55,0.00,,,-99.99,1.0,HOBO +U30 +Weather +,2013-12-15 05:05:00,
2013-12-14 22:10:00,41.6,26.3,-100.00,SW,223,8.5,12.3,54,0.00,,,-99.99,1.0,HOBO +U30 +Weather +,2013-12-15 05:10:00,
2013-12-14 22:15:00,41.5,26.3,-100.00,SW,218,7.4,11.2,54,0.00,,,-99.99,1.0,HOBO +U30 +Weather +,2013-12-15 05:15:00,
2013-12-14 22:20:00,41.0,26.6,-100.00,SSW,205,6.7,11.9,56,0.00,,,-99.99,1.0,HOBO +U30 +Weather +,2013-12-15 05:20:00,
2013-12-14 22:25:00,41.9,27.0,-100.00,SSW,204,8.5,11.2,55,0.00,,,-99.99,1.0,HOBO +U30 +Weather +,2013-12-15 05:25:00,
2013-12-14 22:30:00,42.1,27.1,-100.00,South,187,8.5,10.7,55,0.00,,,-99.99,1.0,HOBO +U30 +Weather +,2013-12-15 05:30:00,
2013-12-14 22:35:00,42.7,27.6,-100.00,SSW,198,6.7,9.6,54,0.00,,,-99.99,1.0,HOBO +U30 +Weather +,2013-12-15 05:35:00,
2013-12-14 22:40:00,42.5,27.4,-100.00,SSW,209,7.4,12.3,54,0.00,,,-99.99,1.0,HOBO +U30 +Weather +,2013-12-15 05:40:00,
2013-12-14 22:45:00,41.5,26.9,-100.00,SSW,206,8.9,14.1,55,0.00,,,-99.99,1.0,HOBO +U30 +Weather +,2013-12-15 05:45:00,
2013-12-14 22:50:00,39.8,26.4,-100.00,SSW,206,10.1,14.5,58,0.00,,,-99.99,1.0,HOBO +U30 +Weather +,2013-12-15 05:50:00,
2013-12-14 22:55:00,39.2,26.3,-100.00,SSW,208,11.9,17.4,59,0.00,,,-99.99,1.0,HOBO +U30 +Weather +,2013-12-15 05:55:00,
2013-12-14 23:00:00,38.8,26.5,-100.00,SSW,212,10.7,18.1,61,0.00,,,-99.99,1.0,HOBO +U30 +Weather +,2013-12-15 06:00:00,
2013-12-14 23:05:00,38.5,26.8,-100.00,SSW,211,12.3,17.0,62,0.00,,,-99.99,1.0,HOBO +U30 +Weather +,2013-12-15 06:05:00,
2013-12-14 23:10:00,38.9,26.9,-100.00,SW,223,8.5,14.1,61,0.00,,,-99.99,1.0,HOBO +U30 +Weather +,2013-12-15 06:10:00,
2013-12-14 23:15:00,39.0,27.0,-100.00,SW,226,7.4,11.9,61,0.00,,,-99.99,1.0,HOBO +U30 +Weather +,2013-12-15 06:15:00,
2013-12-14 23:20:00,39.2,27.2,-100.00,SW,234,8.9,13.4,61,0.00,,,-99.99,1.0,HOBO +U30 +Weather +,2013-12-15 06:20:00,
2013-12-14 23:30:00,39.5,26.6,-100.00,WSW,239,8.9,14.1,59,0.00,,,-99.99,1.0,HOBO +U30 +Weather +,2013-12-15 06:30:00,
2013-12-14 23:31:00,39.5,26.9,-100.00,WSW,239,8.9,13.4,60,0.00,,,-99.99,1.0,HOBO +U30 +Weather +,2013-12-15 06:31:00,
2013-12-14 23:35:00,39.2,26.3,-100.00,WSW,241,10.1,15.9,59,0.00,,,-99.99,1.0,HOBO +U30 +Weather +,2013-12-15 06:35:00,
2013-12-14 23:40:00,39.4,26.3,-100.00,WSW,240,11.2,15.9,59,0.00,,,-99.99,1.0,HOBO +U30 +Weather +,2013-12-15 06:40:00,
2013-12-14 23:45:00,39.1,26.3,-100.00,WSW,243,10.1,15.2,59,0.00,,,-99.99,1.0,HOBO +U30 +Weather +,2013-12-15 06:45:00,
2013-12-14 23:50:00,38.6,26.1,-100.00,WSW,243,11.2,16.3,60,0.00,,,-99.99,1.0,HOBO +U30 +Weather +,2013-12-15 06:50:00,
2013-12-14 23:55:00,38.3,26.1,-100.00,WSW,248,8.9,15.9,61,0.00,,,-99.99,1.0,HOBO +U30 +Weather +,2013-12-15 06:55:00,